createdAt,value
2022-08-07T00:00:22.967Z,101540.47
2022-08-07T00:02:36.495Z,101533.31
2022-08-07T00:04:45.377Z,101525.41
2022-08-07T00:06:51.945Z,101528.22
2022-08-07T00:08:56.031Z,101533.53
2022-08-07T00:10:59.089Z,101526.72
2022-08-07T00:13:17.494Z,101525.13
2022-08-07T00:15:36.095Z,101528.09
2022-08-07T00:17:42.243Z,101525.34
2022-08-07T00:20:00.902Z,101522.81
2022-08-07T00:22:06.782Z,101523.09
2022-08-07T00:24:10.348Z,101519.88
2022-08-07T00:26:31.214Z,101520.25
2022-08-07T00:28:41.812Z,101517.88
2022-08-07T00:30:50.464Z,101515.34
2022-08-07T00:32:53.485Z,101511.69
2022-08-07T00:34:56.676Z,101517.25
2022-08-07T00:36:59.761Z,101522.72
2022-08-07T00:39:02.778Z,101522.63
2022-08-07T00:41:14.692Z,101518.97
2022-08-07T00:43:59.538Z,101511.94
2022-08-07T00:45:42.352Z,101518.22
2022-08-07T00:48:08.693Z,101514.09
2022-08-07T00:50:20.316Z,101506.84
2022-08-07T00:52:36.608Z,101515.94
2022-08-07T00:54:40.653Z,101515.84
2022-08-07T00:56:44.682Z,101518.44
2022-08-07T00:58:52.679Z,101507.00
2022-08-07T01:00:55.632Z,101509.91
2022-08-07T01:03:00.473Z,101510.81
2022-08-07T01:05:19.064Z,101514.50
2022-08-07T01:07:23.750Z,101517.25
2022-08-07T01:10:04.969Z,101508.66
2022-08-07T01:12:23.798Z,101510.97
2022-08-07T01:14:17.892Z,101503.69
2022-08-07T01:16:30.360Z,101508.09
2022-08-07T01:18:35.631Z,101516.97
2022-08-07T01:20:43.579Z,101512.91
2022-08-07T01:23:12.339Z,101508.53
2022-08-07T01:25:39.974Z,101501.72
2022-08-07T01:27:41.143Z,101499.94
2022-08-07T01:29:55.435Z,101499.75
2022-08-07T01:31:59.492Z,101511.28
2022-08-07T01:34:04.085Z,101511.09
2022-08-07T01:36:16.800Z,101503.06
2022-08-07T01:38:24.812Z,101505.84
2022-08-07T01:40:34.162Z,101498.78
2022-08-07T01:42:57.374Z,101496.00
2022-08-07T01:45:01.087Z,101501.38
2022-08-07T01:48:16.990Z,101496.06
2022-08-07T01:49:28.542Z,101502.34
2022-08-07T01:52:02.656Z,101500.72
2022-08-07T01:54:11.679Z,101500.88
2022-08-07T01:56:28.905Z,101498.38
2022-08-07T01:58:37.462Z,101503.06
2022-08-07T02:00:49.271Z,101509.44
2022-08-07T02:03:18.580Z,101505.91
2022-08-07T02:05:43.029Z,101509.59
2022-08-07T02:07:51.613Z,101514.91
2022-08-07T02:10:14.314Z,101510.47
2022-08-07T02:12:18.634Z,101511.47
2022-08-07T02:14:36.599Z,101508.94
2022-08-07T02:16:50.154Z,101510.88
2022-08-07T02:18:57.439Z,101511.81
2022-08-07T02:21:06.399Z,101513.75
2022-08-07T02:23:13.880Z,101500.66
2022-08-07T02:26:10.388Z,101512.31
2022-08-07T02:27:54.482Z,101503.69
2022-08-07T02:29:59.538Z,101503.38
2022-08-07T02:32:10.923Z,101510.44
2022-08-07T02:34:17.961Z,101504.53
2022-08-07T02:36:32.584Z,101504.69
2022-08-07T02:38:51.003Z,101505.31
2022-08-07T02:41:04.279Z,101501.19
2022-08-07T02:43:16.780Z,101505.47
2022-08-07T02:45:58.102Z,101504.53
2022-08-07T02:47:49.181Z,101493.94
2022-08-07T02:49:58.543Z,101490.50
2022-08-07T02:52:12.900Z,101492.56
2022-08-07T02:54:19.221Z,101492.66
2022-08-07T02:56:24.357Z,101492.72
2022-08-07T02:58:33.250Z,101493.69
2022-08-07T03:00:39.911Z,101489.63
2022-08-07T03:02:54.319Z,101487.13
2022-08-07T03:04:59.224Z,101485.38
2022-08-07T03:07:05.258Z,101487.19
2022-08-07T03:09:43.870Z,101483.56
2022-08-07T03:11:51.889Z,101486.03
2022-08-07T03:14:04.310Z,101490.50
2022-08-07T03:16:14.988Z,101488.97
2022-08-07T03:18:20.214Z,101496.63
2022-08-07T03:20:27.607Z,101492.34
2022-08-07T03:22:31.721Z,101490.66
2022-08-07T03:24:36.723Z,101498.56
2022-08-07T03:26:58.349Z,101487.41
2022-08-07T03:29:10.399Z,101491.91
2022-08-07T03:31:24.878Z,101490.66
2022-08-07T03:33:44.818Z,101486.31
2022-08-07T03:35:52.907Z,101485.59
2022-08-07T03:38:01.913Z,101480.19
2022-08-07T03:40:15.753Z,101485.59
2022-08-07T03:42:21.957Z,101483.09
2022-08-07T03:44:34.331Z,101483.16
2022-08-07T03:47:13.064Z,101481.53
2022-08-07T03:49:04.512Z,101477.16
2022-08-07T03:51:14.570Z,101474.56
2022-08-07T03:53:18.025Z,101476.34
2022-08-07T03:55:23.109Z,101476.44
2022-08-07T03:58:34.295Z,101479.09
2022-08-07T04:00:02.984Z,101479.09
2022-08-07T04:02:18.752Z,101476.53
2022-08-07T04:04:22.739Z,101475.72
2022-08-07T04:06:37.238Z,101478.50
2022-08-07T04:08:42.534Z,101475.75
2022-08-07T04:10:54.320Z,101479.44
2022-08-07T04:13:15.728Z,101473.22
2022-08-07T04:15:23.951Z,101475.06
2022-08-07T04:18:11.304Z,101475.72
2022-08-07T04:19:54.266Z,101477.53
2022-08-07T04:22:07.843Z,101471.47
2022-08-07T04:24:30.592Z,101468.59
2022-08-07T04:26:43.625Z,101480.91
2022-08-07T04:28:48.385Z,101472.84
2022-08-07T04:30:57.032Z,101482.81
2022-08-07T04:33:07.974Z,101479.88
2022-08-07T04:35:14.326Z,101478.06
2022-08-07T04:37:20.431Z,101480.56
2022-08-07T04:39:26.204Z,101481.31
2022-08-07T04:41:30.634Z,101481.19
2022-08-07T04:44:09.791Z,101477.50
2022-08-07T04:46:29.641Z,101479.09
2022-08-07T04:48:46.365Z,101480.03
2022-08-07T04:51:00.231Z,101480.97
2022-08-07T04:53:09.169Z,101484.38
2022-08-07T04:58:13.808Z,101485.31
2022-08-07T04:58:14.419Z,101480.84
2022-08-07T05:00:30.321Z,101485.47
2022-08-07T05:02:45.818Z,101490.13
2022-08-07T05:04:57.255Z,101489.84
2022-08-07T05:07:19.796Z,101487.47
2022-08-07T05:09:45.923Z,101473.50
2022-08-07T05:11:56.964Z,101465.91
2022-08-07T05:14:52.439Z,101473.44
2022-08-07T05:16:33.317Z,101457.78
2022-08-07T05:18:42.185Z,101462.00
2022-08-07T05:20:50.261Z,101461.06
2022-08-07T05:22:56.194Z,101446.81
2022-08-07T05:25:00.730Z,101455.22
2022-08-07T05:27:06.952Z,101456.28
2022-08-07T05:29:22.701Z,101454.13
2022-08-07T05:31:35.213Z,101452.31
2022-08-07T05:34:01.202Z,101459.16
2022-08-07T05:36:22.325Z,101458.53
2022-08-07T05:39:01.236Z,101451.19
2022-08-07T05:40:51.860Z,101456.06
2022-08-07T05:42:57.447Z,101460.50
2022-08-07T05:45:14.062Z,101455.00
2022-08-07T05:47:20.840Z,101456.03
2022-08-07T05:49:43.176Z,101450.84
2022-08-07T05:51:47.702Z,101452.09
2022-08-07T05:54:12.272Z,101453.25
2022-08-07T05:56:20.609Z,101448.25
2022-08-07T05:58:37.084Z,101452.03
2022-08-07T06:00:46.243Z,101449.09
2022-08-07T06:02:55.005Z,101446.09
2022-08-07T06:05:03.919Z,101452.97
2022-08-07T06:07:08.291Z,101458.44
2022-08-07T06:09:16.262Z,101450.72
2022-08-07T06:11:22.298Z,101454.78
2022-08-07T06:14:10.653Z,101451.91
2022-08-07T06:15:50.708Z,101454.84
2022-08-07T06:18:01.042Z,101455.28
2022-08-07T06:20:12.633Z,101452.34
2022-08-07T06:22:32.457Z,101456.50
2022-08-07T06:24:58.466Z,101456.56
2022-08-07T06:27:05.691Z,101456.81
2022-08-07T06:29:10.531Z,101458.34
2022-08-07T06:31:14.601Z,101456.03
2022-08-07T06:33:19.062Z,101456.50
2022-08-07T06:35:39.109Z,101453.22
2022-08-07T06:37:49.743Z,101444.34
2022-08-07T06:40:16.130Z,101445.16
2022-08-07T06:42:32.811Z,101453.44
2022-08-07T06:44:58.982Z,101451.47
2022-08-07T06:47:10.242Z,101443.19
2022-08-07T06:49:16.174Z,101449.56
2022-08-07T06:51:24.534Z,101444.00
2022-08-07T06:55:28.999Z,101448.75
2022-08-07T06:56:02.050Z,101438.06
2022-08-07T06:58:13.793Z,101443.63
2022-08-07T07:00:32.643Z,101432.03
2022-08-07T07:02:48.992Z,101428.47
2022-08-07T07:04:58.072Z,101431.22
2022-08-07T07:07:18.771Z,101428.66
2022-08-07T07:09:30.862Z,101425.59
2022-08-07T07:12:08.781Z,101428.47
2022-08-07T07:14:01.398Z,101422.91
2022-08-07T07:16:14.801Z,101427.84
2022-08-07T07:18:46.838Z,101419.81
2022-08-07T07:20:54.501Z,101420.41
2022-08-07T07:24:10.987Z,101415.25
2022-08-07T07:26:32.841Z,101426.31
2022-08-07T07:27:55.707Z,101413.22
2022-08-07T07:30:09.611Z,101421.16
2022-08-07T07:32:15.530Z,101412.00
2022-08-07T07:34:22.300Z,101414.16
2022-08-07T07:36:34.885Z,101417.09
2022-08-07T07:38:46.162Z,101421.75
2022-08-07T07:40:51.002Z,101413.16
2022-08-07T07:42:55.842Z,101408.13
2022-08-07T07:45:01.345Z,101406.03
2022-08-07T07:47:15.930Z,101405.00
2022-08-07T07:50:33.336Z,101400.78
2022-08-07T07:51:58.165Z,101411.38
2022-08-07T07:54:04.394Z,101399.16
2022-08-07T07:56:16.717Z,101396.31
2022-08-07T07:58:40.238Z,101395.91
2022-08-07T08:00:45.762Z,101394.53
2022-08-07T08:03:01.194Z,101392.78
2022-08-07T08:05:11.387Z,101391.44
2022-08-07T08:07:30.024Z,101385.53
2022-08-07T08:09:52.094Z,101385.13
2022-08-07T08:12:05.173Z,101389.34
2022-08-07T08:14:09.382Z,101391.50
2022-08-07T08:16:20.333Z,101388.47
2022-08-07T08:18:29.254Z,101387.34
2022-08-07T08:20:34.503Z,101390.06
2022-08-07T08:23:00.428Z,101380.84
2022-08-07T08:25:41.956Z,101378.38
2022-08-07T08:27:56.806Z,101379.19
2022-08-07T08:30:05.474Z,101382.25
2022-08-07T08:32:18.868Z,101376.75
2022-08-07T08:34:29.484Z,101365.84
2022-08-07T08:36:34.625Z,101364.47
2022-08-07T08:38:41.168Z,101364.94
2022-08-07T08:40:51.218Z,101366.75
2022-08-07T08:42:58.589Z,101368.44
2022-08-07T08:45:13.089Z,101370.22
2022-08-07T08:47:25.213Z,101364.88
2022-08-07T08:49:46.295Z,101361.78
2022-08-07T08:52:14.009Z,101372.88
2022-08-07T08:54:26.584Z,101375.41
2022-08-07T08:56:35.010Z,101369.19
2022-08-07T08:58:50.620Z,101368.44
2022-08-07T09:01:01.864Z,101361.94
2022-08-07T09:03:47.975Z,101351.47
2022-08-07T09:05:55.135Z,101357.28
2022-08-07T09:08:17.892Z,101357.09
2022-08-07T09:10:32.685Z,101353.13
2022-08-07T09:12:53.117Z,101352.91
2022-08-07T09:16:22.439Z,101355.56
2022-08-07T09:17:59.473Z,101344.59
2022-08-07T09:20:03.222Z,101343.88
2022-08-07T09:24:31.903Z,101341.84
2022-08-07T09:25:17.301Z,101343.50
2022-08-07T09:27:28.786Z,101348.16
2022-08-07T09:30:03.991Z,101357.13
2022-08-07T09:32:20.909Z,101348.72
2022-08-07T09:34:27.612Z,101349.84
2022-08-07T09:36:37.199Z,101345.47
2022-08-07T09:38:50.256Z,101350.44
2022-08-07T09:44:05.693Z,101347.22
2022-08-07T09:47:23.713Z,101332.16
2022-08-07T09:50:00.760Z,101328.78
2022-08-07T09:52:10.856Z,101325.84
2022-08-07T09:54:08.226Z,101323.19
2022-08-07T09:56:37.319Z,101330.75
2022-08-07T09:59:00.718Z,101327.03
2022-08-07T10:01:53.799Z,101327.69
2022-08-07T10:04:14.421Z,101321.22
2022-08-07T10:06:30.506Z,101324.03
2022-08-07T10:09:08.617Z,101328.03
2022-08-07T10:12:02.433Z,101324.81
2022-08-07T10:13:58.350Z,101320.00
2022-08-07T10:16:23.493Z,101319.16
2022-08-07T10:18:40.759Z,101308.22
2022-08-07T10:20:59.124Z,101313.59
2022-08-07T10:24:06.409Z,101319.50
2022-08-07T10:26:05.013Z,101313.34
2022-08-07T10:28:17.802Z,101305.06
2022-08-07T10:30:24.943Z,101308.94
2022-08-07T10:32:53.337Z,101300.25
2022-08-07T10:35:09.112Z,101300.97
2022-08-07T10:38:00.263Z,101299.84
2022-08-07T10:40:05.792Z,101302.34
2022-08-07T10:42:31.308Z,101299.47
2022-08-07T10:44:47.132Z,101299.63
2022-08-07T10:46:55.891Z,101292.59
2022-08-07T10:49:03.837Z,101291.16
2022-08-07T10:51:39.727Z,101293.16
2022-08-07T10:53:48.648Z,101292.91
2022-08-07T10:56:02.231Z,101288.59
2022-08-07T10:58:14.525Z,101286.63
2022-08-07T11:00:39.114Z,101281.97
2022-08-07T11:02:49.007Z,101285.03
2022-08-07T11:05:10.172Z,101276.06
2022-08-07T11:07:56.582Z,101277.38
2022-08-07T11:10:09.537Z,101269.56
2022-08-07T11:12:19.043Z,101268.06
2022-08-07T11:14:45.906Z,101259.09
2022-08-07T11:17:07.201Z,101254.31
2022-08-07T11:19:21.692Z,101248.03
2022-08-07T11:21:42.966Z,101250.06
2022-08-07T11:23:50.035Z,101245.25
2022-08-07T11:26:05.994Z,101262.25
2022-08-07T11:28:15.551Z,101255.50
2022-08-07T11:30:29.094Z,101252.53
2022-08-07T11:32:47.949Z,101251.13
2022-08-07T11:34:58.460Z,101248.22
2022-08-07T11:37:03.911Z,101229.94
2022-08-07T11:39:19.551Z,101233.53
2022-08-07T11:42:02.092Z,101238.88
2022-08-07T11:44:12.457Z,101242.25
2022-08-07T11:46:30.442Z,101236.31
2022-08-07T11:49:27.617Z,101233.03
2022-08-07T11:51:41.955Z,101236.13
2022-08-07T11:54:01.639Z,101236.13
2022-08-07T11:56:28.112Z,101237.22
2022-08-07T11:58:42.868Z,101239.88
2022-08-07T12:01:07.391Z,101224.88
2022-08-07T12:03:47.051Z,101222.47
2022-08-07T12:06:37.801Z,101227.38
2022-08-07T12:08:35.055Z,101222.00
2022-08-07T12:10:41.631Z,101217.91
2022-08-07T12:12:56.524Z,101222.91
2022-08-07T12:15:05.257Z,101225.16
2022-08-07T12:17:19.721Z,101227.84
2022-08-07T12:19:35.967Z,101219.94
2022-08-07T12:22:37.179Z,101224.53
2022-08-07T12:24:38.080Z,101221.81
2022-08-07T12:26:49.300Z,101222.91
2022-08-07T12:28:58.531Z,101215.41
2022-08-07T12:33:31.064Z,101208.19
2022-08-07T12:35:58.117Z,101203.09
2022-08-07T12:38:11.558Z,101205.25
2022-08-07T12:40:46.300Z,101196.56
2022-08-07T12:42:54.931Z,101193.09
2022-08-07T12:45:05.716Z,101196.31
2022-08-07T12:47:21.353Z,101200.25
2022-08-07T12:49:44.802Z,101196.59
2022-08-07T12:52:13.995Z,101196.59
2022-08-07T12:54:38.436Z,101190.81
2022-08-07T12:56:50.903Z,101196.78
2022-08-07T12:58:57.238Z,101195.91
2022-08-07T13:01:07.854Z,101182.53
2022-08-07T13:04:02.105Z,101187.50
2022-08-07T13:06:31.251Z,101185.28
2022-08-07T13:08:52.525Z,101185.75
2022-08-07T13:11:20.899Z,101182.41
2022-08-07T13:13:47.994Z,101186.19
2022-08-07T13:16:00.550Z,101183.31
2022-08-07T13:18:26.235Z,101178.63
2022-08-07T13:20:36.879Z,101174.38
2022-08-07T13:22:52.533Z,101175.75
2022-08-07T13:25:00.537Z,101174.25
2022-08-07T13:27:12.942Z,101173.91
2022-08-07T13:29:20.471Z,101161.31
2022-08-07T13:31:32.043Z,101162.84
2022-08-07T13:34:32.621Z,101163.00
2022-08-07T13:36:26.776Z,101160.44
2022-08-07T13:38:36.676Z,101157.00
2022-08-07T13:41:04.353Z,101152.25
2022-08-07T13:43:12.339Z,101149.75
2022-08-07T13:46:11.756Z,101154.94
2022-08-07T13:48:08.566Z,101147.19
2022-08-07T13:50:35.133Z,101145.16
2022-08-07T13:52:40.770Z,101141.56
2022-08-07T13:54:49.113Z,101148.97
2022-08-07T13:57:01.772Z,101143.69
2022-08-07T13:59:20.383Z,101130.22
2022-08-07T14:01:26.366Z,101136.84
2022-08-07T14:04:06.946Z,101135.88
2022-08-07T14:06:02.069Z,101129.66
2022-08-07T14:08:08.951Z,101125.97
2022-08-07T14:10:23.117Z,101125.81
2022-08-07T14:12:36.221Z,101128.16
2022-08-07T14:14:48.142Z,101120.50
2022-08-07T14:16:54.529Z,101117.78
2022-08-07T14:18:58.614Z,101121.72
2022-08-07T14:21:07.986Z,101124.28
2022-08-07T14:23:59.232Z,101116.47
2022-08-07T14:26:00.930Z,101124.19
2022-08-07T14:28:10.716Z,101119.47
2022-08-07T14:30:27.700Z,101112.41
2022-08-07T14:32:42.926Z,101118.50
2022-08-07T14:34:47.068Z,101112.28
2022-08-07T14:36:55.845Z,101117.97
2022-08-07T14:39:03.304Z,101113.34
2022-08-07T14:41:15.279Z,101097.38
2022-08-07T14:43:57.320Z,101100.47
2022-08-07T14:45:49.463Z,101104.13
2022-08-07T14:47:58.855Z,101104.38
2022-08-07T14:50:06.602Z,101098.06
2022-08-07T14:52:16.896Z,101098.44
2022-08-07T14:56:44.904Z,101097.31
2022-08-07T14:58:55.027Z,101088.31
2022-08-07T15:00:59.662Z,101097.84
2022-08-07T15:03:25.052Z,101095.41
2022-08-07T15:05:54.885Z,101094.31
2022-08-07T15:08:12.563Z,101086.75
2022-08-07T15:10:25.012Z,101090.28
2022-08-07T15:12:34.574Z,101086.94
2022-08-07T15:17:20.563Z,101085.50
2022-08-07T15:20:31.082Z,101082.84
2022-08-07T15:22:04.126Z,101084.56
2022-08-07T15:26:41.016Z,101086.75
2022-08-07T15:31:58.028Z,101086.88
2022-08-07T15:33:43.101Z,101079.06
2022-08-07T15:36:01.928Z,101079.00
2022-08-07T15:40:34.874Z,101081.16
2022-08-07T15:42:51.748Z,101077.06
2022-08-07T15:44:55.245Z,101082.63
2022-08-07T15:54:01.868Z,101063.38
2022-08-07T15:56:17.450Z,101065.41
2022-08-07T15:58:24.853Z,101064.13
2022-08-07T16:00:39.701Z,101065.34
2022-08-07T16:02:46.799Z,101063.47
2022-08-07T16:04:50.776Z,101066.63
2022-08-07T16:06:55.604Z,101068.22
2022-08-07T16:09:04.041Z,101068.50
2022-08-07T16:11:40.195Z,101069.78
2022-08-07T16:14:03.228Z,101068.50
2022-08-07T16:16:48.875Z,101068.91
2022-08-07T16:18:51.586Z,101070.34
2022-08-07T16:22:03.226Z,101067.22
2022-08-07T16:23:54.787Z,101063.22
2022-08-07T16:26:03.210Z,101058.41
2022-08-07T16:30:05.973Z,101057.53
2022-08-07T16:30:57.832Z,101060.28
2022-08-07T16:34:02.643Z,101058.13
2022-08-07T16:35:56.506Z,101059.38
2022-08-07T16:38:09.694Z,101058.41
2022-08-07T16:40:56.842Z,101051.28
2022-08-07T16:43:12.445Z,101052.84
2022-08-07T16:46:34.586Z,101052.16
2022-08-07T16:50:27.507Z,101048.47
2022-08-07T16:52:50.555Z,101049.28
2022-08-07T16:54:34.705Z,101054.00
2022-08-07T16:56:53.557Z,101047.88
2022-08-07T16:59:14.782Z,101051.31
2022-08-07T17:01:35.037Z,101056.69
2022-08-07T17:03:59.744Z,101056.16
2022-08-07T17:06:41.118Z,101055.28
2022-08-07T17:09:10.552Z,101047.88
2022-08-07T17:11:28.219Z,101044.75
2022-08-07T17:14:18.554Z,101051.56
2022-08-07T17:16:28.515Z,101047.25
2022-08-07T17:18:37.829Z,101048.38
2022-08-07T17:20:42.381Z,101052.38
2022-08-07T17:23:01.392Z,101045.25
2022-08-07T17:25:16.145Z,101046.41
2022-08-07T17:27:32.656Z,101049.53
2022-08-07T17:30:15.475Z,101052.25
2022-08-07T17:32:30.002Z,101046.84
2022-08-07T17:34:38.804Z,101057.31
2022-08-07T17:37:09.648Z,101057.47
2022-08-07T17:39:57.639Z,101048.94
2022-08-07T17:42:06.540Z,101056.06
2022-08-07T17:44:33.230Z,101051.03
2022-08-07T17:46:41.696Z,101056.59
2022-08-07T17:48:52.800Z,101052.91
2022-08-07T17:51:01.761Z,101053.16
2022-08-07T17:53:59.682Z,101051.63
2022-08-07T17:55:55.046Z,101050.59
2022-08-07T17:58:05.224Z,101053.88
2022-08-07T18:00:11.859Z,101051.47
2022-08-07T18:02:16.446Z,101055.00
2022-08-07T18:04:30.825Z,101062.38
2022-08-07T18:06:43.241Z,101059.38
2022-08-07T18:09:02.030Z,101057.06
2022-08-07T18:12:08.054Z,101060.63
2022-08-07T18:13:48.407Z,101061.31
2022-08-07T18:16:04.702Z,101055.59
2022-08-07T18:18:46.012Z,101065.25
2022-08-07T18:21:02.845Z,101064.13
2022-08-07T18:23:05.951Z,101069.31
2022-08-07T18:25:40.822Z,101068.88
2022-08-07T18:28:00.668Z,101070.25
2022-08-07T18:30:31.238Z,101077.91
2022-08-07T18:33:12.125Z,101076.06
2022-08-07T18:35:22.976Z,101083.72
2022-08-07T18:38:56.529Z,101082.72
2022-08-07T18:40:17.947Z,101088.47
2022-08-07T18:42:37.322Z,101081.94
2022-08-07T18:47:21.006Z,101092.78
2022-08-07T18:50:32.822Z,101101.00
2022-08-07T18:52:37.519Z,101102.97
2022-08-07T18:54:34.852Z,101102.53
2022-08-07T18:57:23.406Z,101098.66
2022-08-07T18:59:47.276Z,101113.34
2022-08-07T19:02:19.029Z,101108.75
2022-08-07T19:04:37.202Z,101109.38
2022-08-07T19:06:51.396Z,101109.66
2022-08-07T19:09:09.035Z,101115.41
2022-08-07T19:11:36.711Z,101123.34
2022-08-07T19:14:02.429Z,101116.97
2022-08-07T19:19:57.920Z,101133.16
2022-08-07T19:22:05.503Z,101139.63
2022-08-07T19:24:30.462Z,101134.41
2022-08-07T19:27:08.959Z,101142.75
2022-08-07T19:30:57.665Z,101139.56
2022-08-07T19:32:10.955Z,101145.88
2022-08-07T19:34:05.518Z,101147.72
2022-08-07T19:36:15.714Z,101153.47
2022-08-07T19:38:33.787Z,101150.28
2022-08-07T19:40:50.450Z,101151.25
2022-08-07T19:42:55.790Z,101151.88
2022-08-07T19:45:09.321Z,101153.69
2022-08-07T19:47:16.182Z,101156.84
2022-08-07T19:49:57.620Z,101161.59
2022-08-07T19:51:52.498Z,101163.91
2022-08-07T19:54:34.268Z,101164.28
2022-08-07T19:57:52.241Z,101165.84
2022-08-07T19:58:53.212Z,101170.72
2022-08-07T20:00:58.657Z,101173.16
2022-08-07T20:03:34.751Z,101168.22
2022-08-07T20:05:59.536Z,101165.22
2022-08-07T20:07:59.847Z,101163.72
2022-08-07T20:10:36.938Z,101163.59
2022-08-07T20:12:35.037Z,101168.56
2022-08-07T20:14:53.518Z,101170.09
2022-08-07T20:16:58.431Z,101168.22
2022-08-07T20:19:02.417Z,101162.88
2022-08-07T20:21:14.354Z,101165.63
2022-08-07T20:23:41.042Z,101156.91
2022-08-07T20:25:51.112Z,101166.59
2022-08-07T20:27:58.690Z,101165.75
2022-08-07T20:30:10.952Z,101171.66
2022-08-07T20:32:25.243Z,101170.38
2022-08-07T20:34:49.416Z,101167.50
2022-08-07T20:36:53.621Z,101166.09
2022-08-07T20:39:30.371Z,101179.09
2022-08-07T20:41:34.041Z,101174.13
2022-08-07T20:43:47.926Z,101180.75
2022-08-07T20:46:27.149Z,101178.47
2022-08-07T20:48:29.061Z,101171.94
2022-08-07T20:50:34.672Z,101177.50
2022-08-07T20:52:51.196Z,101177.91
2022-08-07T20:54:57.692Z,101176.72
2022-08-07T20:57:08.238Z,101175.31
2022-08-07T21:00:04.839Z,101174.03
2022-08-07T21:01:55.456Z,101179.69
2022-08-07T21:04:22.960Z,101177.41
2022-08-07T21:06:28.457Z,101188.56
2022-08-07T21:08:39.267Z,101183.47
2022-08-07T21:10:46.242Z,101184.00
2022-08-07T21:12:49.811Z,101187.72
2022-08-07T21:14:53.926Z,101188.97
2022-08-07T21:18:00.741Z,101186.38
2022-08-07T21:19:32.386Z,101191.06
2022-08-07T21:21:57.578Z,101187.72
2022-08-07T21:24:04.549Z,101198.84
2022-08-07T21:26:20.543Z,101192.16
2022-08-07T21:28:48.705Z,101194.09
2022-08-07T21:31:01.002Z,101191.72
2022-08-07T21:33:11.577Z,101187.59
2022-08-07T21:35:34.915Z,101191.81
2022-08-07T21:37:58.383Z,101196.81
2022-08-07T21:40:07.797Z,101197.28
2022-08-07T21:42:41.789Z,101196.59
2022-08-07T21:44:51.018Z,101198.72
2022-08-07T21:46:59.479Z,101208.94
2022-08-07T21:49:14.669Z,101201.31
2022-08-07T21:51:32.391Z,101203.13
2022-08-07T21:53:46.583Z,101202.34
2022-08-07T21:56:01.721Z,101200.53
2022-08-07T21:58:29.946Z,101209.78
2022-08-07T22:00:41.042Z,101210.91
2022-08-07T22:02:46.337Z,101210.16
2022-08-07T22:04:54.039Z,101213.00
2022-08-07T22:07:02.487Z,101207.41
2022-08-07T22:09:07.466Z,101216.22
2022-08-07T22:11:17.579Z,101221.03
2022-08-07T22:13:52.326Z,101222.72
2022-08-07T22:16:39.029Z,101220.88
2022-08-07T22:18:24.929Z,101224.13
2022-08-07T22:20:37.848Z,101222.28
2022-08-07T22:22:46.424Z,101223.66
2022-08-07T22:25:03.642Z,101218.41
2022-08-07T22:27:17.238Z,101228.06
2022-08-07T22:29:38.107Z,101234.09
2022-08-07T22:32:03.395Z,101224.56
2022-08-07T22:34:14.724Z,101233.22
2022-08-07T22:36:29.583Z,101224.69
2022-08-07T22:38:38.822Z,101223.91
2022-08-07T22:40:49.596Z,101219.50
2022-08-07T22:42:56.978Z,101219.97
2022-08-07T22:45:10.971Z,101224.09
2022-08-07T22:47:56.313Z,101227.53
2022-08-07T22:50:20.786Z,101223.22
2022-08-07T22:52:48.177Z,101223.59
2022-08-07T22:55:17.135Z,101224.88
2022-08-07T22:57:46.616Z,101223.59
2022-08-07T22:59:58.547Z,101226.41
2022-08-07T23:02:27.902Z,101228.84
2022-08-07T23:06:06.920Z,101235.28
2022-08-07T23:07:41.967Z,101229.63
2022-08-07T23:10:38.374Z,101224.88
2022-08-07T23:12:43.523Z,101230.50
2022-08-07T23:15:21.871Z,101235.97
2022-08-07T23:17:54.594Z,101235.88
2022-08-07T23:20:40.577Z,101232.53
2022-08-07T23:22:56.173Z,101236.66
2022-08-07T23:25:10.249Z,101241.13
2022-08-07T23:28:22.594Z,101249.22
2022-08-07T23:30:39.682Z,101237.84
2022-08-07T23:34:36.006Z,101238.78
2022-08-07T23:35:40.408Z,101239.81
2022-08-07T23:38:00.866Z,101243.59
2022-08-07T23:40:14.199Z,101248.22
2022-08-07T23:42:41.418Z,101246.34
2022-08-07T23:45:15.436Z,101247.06
2022-08-07T23:53:00.972Z,101256.94
2022-08-07T23:53:55.356Z,101250.53
2022-08-07T23:56:41.651Z,101260.47
